sensor_id;sensor_type;location;lat;lon;timestamp;pressure;altitude;pressure_sealevel;temperature;humidity
68145;BME280;55400;51.824;-0.196;2023-02-18T00:02:32;101245.31;;;10.61;86.40
68145;BME280;55400;51.824;-0.196;2023-02-18T00:06:33;101243.42;;;10.62;86.22
68145;BME280;55400;51.824;-0.196;2023-02-18T00:10:32;101243.46;;;10.59;85.90
68145;BME280;55400;51.824;-0.196;2023-02-18T00:14:32;101243.46;;;10.60;85.90
68145;BME280;55400;51.824;-0.196;2023-02-18T00:18:32;101238.45;;;10.61;85.82
68145;BME280;55400;51.824;-0.196;2023-02-18T00:22:33;101238.45;;;10.62;85.50
68145;BME280;55400;51.824;-0.196;2023-02-18T00:26:33;101240.22;;;10.61;85.08
68145;BME280;55400;51.824;-0.196;2023-02-18T00:30:33;101233.76;;;10.62;84.53
68145;BME280;55400;51.824;-0.196;2023-02-18T00:34:32;101232.86;;;10.61;84.19
68145;BME280;55400;51.824;-0.196;2023-02-18T00:42:33;101217.19;;;10.59;83.74
68145;BME280;55400;51.824;-0.196;2023-02-18T00:46:33;101215.85;;;10.60;83.53
68145;BME280;55400;51.824;-0.196;2023-02-18T00:54:33;101218.83;;;10.59;83.17
68145;BME280;55400;51.824;-0.196;2023-02-18T00:58:33;101205.56;;;10.57;82.79
68145;BME280;55400;51.824;-0.196;2023-02-18T01:06:33;101196.72;;;10.55;82.67
68145;BME280;55400;51.824;-0.196;2023-02-18T01:10:33;101200.87;;;10.52;82.92
68145;BME280;55400;51.824;-0.196;2023-02-18T01:14:33;101199.01999999999;;;10.49;83.26
68145;BME280;55400;51.824;-0.196;2023-02-18T01:18:33;101196.15;;;10.45;83.50
68145;BME280;55400;51.824;-0.196;2023-02-18T01:22:33;101188.67;;;10.40;83.42
68145;BME280;55400;51.824;-0.196;2023-02-18T01:26:33;101188.67;;;10.37;82.51
68145;BME280;55400;51.824;-0.196;2023-02-18T01:30:33;101186.01;;;10.35;82.36
68145;BME280;55400;51.824;-0.196;2023-02-18T01:34:33;101180.76999999999;;;10.33;82.19
68145;BME280;55400;51.824;-0.196;2023-02-18T01:38:33;101185.74;;;10.32;82.19
68145;BME280;55400;51.824;-0.196;2023-02-18T01:42:33;101185.64;;;10.31;82.09
68145;BME280;55400;51.824;-0.196;2023-02-18T01:46:33;101185.64;;;10.30;82.04
68145;BME280;55400;51.824;-0.196;2023-02-18T01:50:33;101172.79999999999;;;10.26;81.64
68145;BME280;55400;51.824;-0.196;2023-02-18T01:54:34;101172.79999999999;;;10.22;81.49
68145;BME280;55400;51.824;-0.196;2023-02-18T01:58:33;101177.67;;;10.12;80.89
68145;BME280;55400;51.824;-0.196;2023-02-18T02:02:34;101181.62;;;10.05;81.28
68145;BME280;55400;51.824;-0.196;2023-02-18T02:06:33;101181.62;;;9.98;80.72
68145;BME280;55400;51.824;-0.196;2023-02-18T02:10:35;101172.46;;;9.95;80.58
68145;BME280;55400;51.824;-0.196;2023-02-18T02:14:38;101134.98;;;9.89;80.89
68145;BME280;55400;51.824;-0.196;2023-02-18T02:18:35;101134.53;;;9.83;80.50
68145;BME280;55400;51.824;-0.196;2023-02-18T02:22:42;101132.95000000001;;;9.76;80.04
68145;BME280;55400;51.824;-0.196;2023-02-18T02:26:39;101122.51;;;9.74;80.04
68145;BME280;55400;51.824;-0.196;2023-02-18T02:30:39;101109.95;;;9.72;80.28
68145;BME280;55400;51.824;-0.196;2023-02-18T02:34:35;101109.55;;;9.71;79.29
68145;BME280;55400;51.824;-0.196;2023-02-18T02:38:33;101109.55;;;9.69;79.29
68145;BME280;55400;51.824;-0.196;2023-02-18T02:50:34;101092.71;;;9.70;77.66
68145;BME280;55400;51.824;-0.196;2023-02-18T02:58:33;101089.54;;;9.72;77.51
68145;BME280;55400;51.824;-0.196;2023-02-18T03:02:35;101083.44;;;9.73;76.90
68145;BME280;55400;51.824;-0.196;2023-02-18T03:14:33;101080.89;;;9.75;76.31
68145;BME280;55400;51.824;-0.196;2023-02-18T03:18:34;101089.51;;;9.74;76.53
68145;BME280;55400;51.824;-0.196;2023-02-18T03:30:34;101063.89;;;9.71;76.22
68145;BME280;55400;51.824;-0.196;2023-02-18T03:34:34;101042.25;;;9.69;74.75
68145;BME280;55400;51.824;-0.196;2023-02-18T03:38:34;101042.25;;;9.67;75.24
68145;BME280;55400;51.824;-0.196;2023-02-18T03:42:33;101045.4;;;9.65;75.63
68145;BME280;55400;51.824;-0.196;2023-02-18T03:46:33;101055.56;;;9.63;74.35
68145;BME280;55400;51.824;-0.196;2023-02-18T03:50:33;101021.91;;;9.58;75.16
68145;BME280;55400;51.824;-0.196;2023-02-18T03:54:33;101035.77;;;9.55;74.48
68145;BME280;55400;51.824;-0.196;2023-02-18T03:58:33;101035.77;;;9.52;75.09
68145;BME280;55400;51.824;-0.196;2023-02-18T04:06:33;101023.69;;;9.48;74.83
68145;BME280;55400;51.824;-0.196;2023-02-18T04:10:33;101006.56;;;9.43;74.17
68145;BME280;55400;51.824;-0.196;2023-02-18T04:14:33;101006.56;;;9.39;74.17
68145;BME280;55400;51.824;-0.196;2023-02-18T04:18:33;101004.96;;;9.36;74.02
68145;BME280;55400;51.824;-0.196;2023-02-18T04:22:33;101004.71;;;9.34;74.10
68145;BME280;55400;51.824;-0.196;2023-02-18T04:26:33;101000.14;;;9.33;74.44
68145;BME280;55400;51.824;-0.196;2023-02-18T04:34:33;101000.03;;;9.31;74.77
68145;BME280;55400;51.824;-0.196;2023-02-18T04:38:33;101004.92;;;9.30;74.77
68145;BME280;55400;51.824;-0.196;2023-02-18T04:42:33;101000.48000000001;;;9.29;74.34
68145;BME280;55400;51.824;-0.196;2023-02-18T04:46:34;101014.4;;;9.27;74.63
68145;BME280;55400;51.824;-0.196;2023-02-18T04:54:33;101014.75;;;9.28;74.88
68145;BME280;55400;51.824;-0.196;2023-02-18T05:10:33;100987.22;;;9.27;75.54
68145;BME280;55400;51.824;-0.196;2023-02-18T05:14:33;100996.78;;;9.26;75.84
68145;BME280;55400;51.824;-0.196;2023-02-18T05:22:33;101005.9;;;9.28;76.63
68145;BME280;55400;51.824;-0.196;2023-02-18T05:26:33;101010.14;;;9.31;76.63
68145;BME280;55400;51.824;-0.196;2023-02-18T05:30:34;101009.84999999999;;;9.33;77.06
68145;BME280;55400;51.824;-0.196;2023-02-18T05:34:33;101001.84000000001;;;9.36;77.06
68145;BME280;55400;51.824;-0.196;2023-02-18T05:38:33;100994.92;;;9.40;77.22
68145;BME280;55400;51.824;-0.196;2023-02-18T05:42:33;100990.44;;;9.43;77.84
68145;BME280;55400;51.824;-0.196;2023-02-18T05:46:33;100992.68;;;9.47;77.84
68145;BME280;55400;51.824;-0.196;2023-02-18T05:50:33;100976.92;;;9.49;77.96
68145;BME280;55400;51.824;-0.196;2023-02-18T05:54:34;100995.03;;;9.53;78.12
68145;BME280;55400;51.824;-0.196;2023-02-18T05:58:33;100995.03;;;9.55;78.03
68145;BME280;55400;51.824;-0.196;2023-02-18T06:02:34;100978.83;;;9.58;78.28
68145;BME280;55400;51.824;-0.196;2023-02-18T06:06:34;100971.68000000001;;;9.60;78.36
68145;BME280;55400;51.824;-0.196;2023-02-18T06:10:33;100970.33;;;9.64;78.62
68145;BME280;55400;51.824;-0.196;2023-02-18T06:14:33;100970.33;;;9.66;78.59
68145;BME280;55400;51.824;-0.196;2023-02-18T06:18:34;100976.95;;;9.70;78.92
68145;BME280;55400;51.824;-0.196;2023-02-18T06:22:33;100980.52;;;9.72;79.07
68145;BME280;55400;51.824;-0.196;2023-02-18T06:26:34;100980.52;;;9.73;79.12
68145;BME280;55400;51.824;-0.196;2023-02-18T06:30:33;100986.37999999999;;;9.74;79.44
68145;BME280;55400;51.824;-0.196;2023-02-18T06:34:33;100981.4;;;9.75;79.35
68145;BME280;55400;51.824;-0.196;2023-02-18T06:38:34;100990.98;;;9.77;79.45
68145;BME280;55400;51.824;-0.196;2023-02-18T06:46:34;100969.48999999999;;;9.78;79.72
68145;BME280;55400;51.824;-0.196;2023-02-18T06:58:34;100973.86;;;9.79;79.91
68145;BME280;55400;51.824;-0.196;2023-02-18T07:02:34;100969.17;;;9.78;79.81
68145;BME280;55400;51.824;-0.196;2023-02-18T07:10:34;100981.36;;;9.79;80.03
68145;BME280;55400;51.824;-0.196;2023-02-18T07:18:34;100991.25;;;9.80;80.09
68145;BME280;55400;51.824;-0.196;2023-02-18T07:26:34;100978.27;;;9.81;80.01
68145;BME280;55400;51.824;-0.196;2023-02-18T07:50:34;100986.15999999999;;;9.80;80.66
68145;BME280;55400;51.824;-0.196;2023-02-18T07:58:34;100992.62999999999;;;9.81;81.04
68145;BME280;55400;51.824;-0.196;2023-02-18T08:02:34;100988.72;;;9.80;81.50
68145;BME280;55400;51.824;-0.196;2023-02-18T08:06:35;100996.81;;;9.81;81.57
68145;BME280;55400;51.824;-0.196;2023-02-18T08:10:34;100994.87000000001;;;9.83;81.41
68145;BME280;55400;51.824;-0.196;2023-02-18T08:14:34;101013.97;;;9.85;81.41
68145;BME280;55400;51.824;-0.196;2023-02-18T08:18:34;101017.61;;;9.86;81.51
68145;BME280;55400;51.824;-0.196;2023-02-18T08:22:34;101031.75;;;9.87;81.59
68145;BME280;55400;51.824;-0.196;2023-02-18T08:26:34;101024.58;;;9.88;81.79
68145;BME280;55400;51.824;-0.196;2023-02-18T08:30:34;101020.0;;;9.91;81.79
68145;BME280;55400;51.824;-0.196;2023-02-18T08:34:34;101028.78;;;9.93;81.54
68145;BME280;55400;51.824;-0.196;2023-02-18T08:38:34;101028.78;;;9.96;81.59
68145;BME280;55400;51.824;-0.196;2023-02-18T08:42:34;101047.05;;;9.99;81.70
68145;BME280;55400;51.824;-0.196;2023-02-18T08:46:34;101030.69;;;9.98;81.54
68145;BME280;55400;51.824;-0.196;2023-02-18T08:50:34;101042.66;;;10.00;81.82
68145;BME280;55400;51.824;-0.196;2023-02-18T08:54:34;101036.42;;;10.02;81.93
68145;BME280;55400;51.824;-0.196;2023-02-18T08:58:34;101041.17;;;10.06;82.22
68145;BME280;55400;51.824;-0.196;2023-02-18T09:02:34;101041.17;;;10.11;82.35
68145;BME280;55400;51.824;-0.196;2023-02-18T09:06:35;101054.5;;;10.14;82.17
68145;BME280;55400;51.824;-0.196;2023-02-18T09:10:34;101060.0;;;10.17;81.73
68145;BME280;55400;51.824;-0.196;2023-02-18T09:14:34;101066.04999999999;;;10.20;81.76
68145;BME280;55400;51.824;-0.196;2023-02-18T09:22:34;101058.4;;;10.22;81.68
68145;BME280;55400;51.824;-0.196;2023-02-18T09:26:34;101061.3;;;10.23;81.68
68145;BME280;55400;51.824;-0.196;2023-02-18T09:30:34;101061.3;;;10.22;82.13
68145;BME280;55400;51.824;-0.196;2023-02-18T09:34:34;101067.3;;;10.23;81.98
68145;BME280;55400;51.824;-0.196;2023-02-18T09:38:34;101080.42;;;10.25;81.97
68145;BME280;55400;51.824;-0.196;2023-02-18T09:42:34;101084.47;;;10.30;81.75
68145;BME280;55400;51.824;-0.196;2023-02-18T09:46:35;101084.27;;;10.34;81.63
68145;BME280;55400;51.824;-0.196;2023-02-18T09:50:34;101084.27;;;10.37;81.50
68145;BME280;55400;51.824;-0.196;2023-02-18T09:54:34;101095.25;;;10.42;81.54
68145;BME280;55400;51.824;-0.196;2023-02-18T09:58:34;101088.17;;;10.51;81.45
68145;BME280;55400;51.824;-0.196;2023-02-18T10:02:34;101090.38;;;10.58;81.24
68145;BME280;55400;51.824;-0.196;2023-02-18T10:06:34;101077.15;;;10.61;81.09
68145;BME280;55400;51.824;-0.196;2023-02-18T10:10:36;101079.72;;;10.65;80.95
68145;BME280;55400;51.824;-0.196;2023-02-18T10:14:34;101079.72;;;10.66;80.79
68145;BME280;55400;51.824;-0.196;2023-02-18T10:18:36;101098.94;;;10.67;80.72
68145;BME280;55400;51.824;-0.196;2023-02-18T10:22:34;101098.94;;;10.69;80.79
68145;BME280;55400;51.824;-0.196;2023-02-18T10:26:35;101093.52;;;10.71;80.63
68145;BME280;55400;51.824;-0.196;2023-02-18T10:30:35;101118.08;;;10.75;80.69
68145;BME280;55400;51.824;-0.196;2023-02-18T10:34:38;101118.08;;;10.83;80.69
68145;BME280;55400;51.824;-0.196;2023-02-18T10:38:36;101106.41;;;10.88;80.45
68145;BME280;55400;51.824;-0.196;2023-02-18T10:42:37;101113.54;;;10.95;80.29
68145;BME280;55400;51.824;-0.196;2023-02-18T10:46:36;101117.07;;;11.02;79.99
68145;BME280;55400;51.824;-0.196;2023-02-18T10:50:36;101116.25;;;11.07;79.62
68145;BME280;55400;51.824;-0.196;2023-02-18T10:58:35;101130.61;;;11.14;78.98
68145;BME280;55400;51.824;-0.196;2023-02-18T11:06:37;101116.02;;;11.16;79.06
68145;BME280;55400;51.824;-0.196;2023-02-18T11:10:37;101115.58;;;11.20;78.71
68145;BME280;55400;51.824;-0.196;2023-02-18T11:15:22;101110.67;;;11.23;78.68
68145;BME280;55400;51.824;-0.196;2023-02-18T11:18:36;101110.67;;;11.28;78.68
68145;BME280;55400;51.824;-0.196;2023-02-18T11:22:35;101112.03;;;11.32;78.01
68145;BME280;55400;51.824;-0.196;2023-02-18T11:26:35;101112.69;;;11.39;77.90
68145;BME280;55400;51.824;-0.196;2023-02-18T11:30:35;101106.52;;;11.45;77.90
68145;BME280;55400;51.824;-0.196;2023-02-18T11:34:34;101106.81;;;11.52;77.69
68145;BME280;55400;51.824;-0.196;2023-02-18T11:38:35;101110.75;;;11.61;77.74
68145;BME280;55400;51.824;-0.196;2023-02-18T11:42:34;101109.86;;;11.71;76.95
68145;BME280;55400;51.824;-0.196;2023-02-18T11:46:34;101109.86;;;11.82;76.95
68145;BME280;55400;51.824;-0.196;2023-02-18T11:48:24;101107.4;;;11.90;76.76
68145;BME280;55400;51.824;-0.196;2023-02-18T11:51:04;101113.89;;;11.88;76.76
68145;BME280;55400;51.824;-0.196;2023-02-18T11:59:04;101114.95;;;11.92;74.70
68145;BME280;55400;51.824;-0.196;2023-02-18T12:03:06;101114.45;;;11.97;75.73
68145;BME280;55400;51.824;-0.196;2023-02-18T12:07:05;101114.45;;;11.94;75.36
68145;BME280;55400;51.824;-0.196;2023-02-18T12:15:04;101092.03;;;11.92;75.51
68145;BME280;55400;51.824;-0.196;2023-02-18T12:19:08;101085.49;;;11.89;75.22
68145;BME280;55400;51.824;-0.196;2023-02-18T12:23:05;101089.70000000001;;;11.88;75.46
68145;BME280;55400;51.824;-0.196;2023-02-18T12:27:05;101091.49;;;11.92;75.48
68145;BME280;55400;51.824;-0.196;2023-02-18T12:31:08;101086.15999999999;;;11.94;75.32
68145;BME280;55400;51.824;-0.196;2023-02-18T12:35:10;101098.81;;;11.97;75.30
68145;BME280;55400;51.824;-0.196;2023-02-18T12:39:09;101098.81;;;11.96;75.61
68145;BME280;55400;51.824;-0.196;2023-02-18T12:55:16;101073.42;;;12.01;75.27
68145;BME280;55400;51.824;-0.196;2023-02-18T12:59:06;101072.70999999999;;;12.02;74.50
68145;BME280;55400;51.824;-0.196;2023-02-18T13:03:10;101068.73000000001;;;11.98;74.50
68145;BME280;55400;51.824;-0.196;2023-02-18T13:11:08;101072.03;;;11.94;74.67
68145;BME280;55400;51.824;-0.196;2023-02-18T13:15:05;101077.0;;;11.89;74.67
68145;BME280;55400;51.824;-0.196;2023-02-18T13:19:06;101070.19;;;11.92;74.49
68145;BME280;55400;51.824;-0.196;2023-02-18T13:23:04;101066.81999999999;;;11.98;74.90
68145;BME280;55400;51.824;-0.196;2023-02-18T13:27:07;101060.31;;;12.05;74.39
68145;BME280;55400;51.824;-0.196;2023-02-18T13:31:11;101064.21;;;12.15;74.12
68145;BME280;55400;51.824;-0.196;2023-02-18T13:35:06;101064.21;;;12.18;74.12
68145;BME280;55400;51.824;-0.196;2023-02-18T13:39:05;101047.6;;;12.20;72.70
68145;BME280;55400;51.824;-0.196;2023-02-18T13:47:05;101031.56;;;12.25;73.19
68145;BME280;55400;51.824;-0.196;2023-02-18T13:51:05;101025.8;;;12.24;73.00
68145;BME280;55400;51.824;-0.196;2023-02-18T13:55:04;101032.79;;;12.21;72.97
68145;BME280;55400;51.824;-0.196;2023-02-18T14:15:40;101015.26;;;12.41;72.70
68145;BME280;55400;51.824;-0.196;2023-02-18T14:23:10;101008.26;;;12.54;71.72
68145;BME280;55400;51.824;-0.196;2023-02-18T14:27:07;100984.09;;;12.56;72.18
68145;BME280;55400;51.824;-0.196;2023-02-18T14:31:05;101000.83;;;12.52;71.18
68145;BME280;55400;51.824;-0.196;2023-02-18T14:35:07;100986.19;;;12.45;71.70
68145;BME280;55400;51.824;-0.196;2023-02-18T14:39:05;100986.19;;;12.43;71.70
68145;BME280;55400;51.824;-0.196;2023-02-18T14:43:06;100986.27;;;12.42;71.92
68145;BME280;55400;51.824;-0.196;2023-02-18T14:47:08;100985.53;;;12.35;72.27
68145;BME280;55400;51.824;-0.196;2023-02-18T14:51:04;100984.06;;;12.34;71.73
68145;BME280;55400;51.824;-0.196;2023-02-18T14:55:05;100984.06;;;12.32;72.08
68145;BME280;55400;51.824;-0.196;2023-02-18T14:59:04;100980.40999999999;;;12.27;71.48
68145;BME280;55400;51.824;-0.196;2023-02-18T15:03:08;100972.79999999999;;;12.24;71.38
68145;BME280;55400;51.824;-0.196;2023-02-18T15:07:07;100972.79999999999;;;12.22;71.68
68145;BME280;55400;51.824;-0.196;2023-02-18T15:11:05;100976.09;;;12.19;71.71
68145;BME280;55400;51.824;-0.196;2023-02-18T15:19:05;100969.31;;;12.17;71.74
68145;BME280;55400;51.824;-0.196;2023-02-18T15:23:04;100969.31;;;12.13;71.42
68145;BME280;55400;51.824;-0.196;2023-02-18T15:27:11;100970.68000000001;;;12.12;71.70
68145;BME280;55400;51.824;-0.196;2023-02-18T15:31:08;100976.45;;;12.07;71.62
68145;BME280;55400;51.824;-0.196;2023-02-18T15:35:13;100962.72;;;12.05;71.59
68145;BME280;55400;51.824;-0.196;2023-02-18T15:39:04;100972.27;;;12.01;71.67
68145;BME280;55400;51.824;-0.196;2023-02-18T15:43:04;100965.47;;;11.97;71.58
68145;BME280;55400;51.824;-0.196;2023-02-18T15:47:05;100965.3;;;11.90;71.82
68145;BME280;55400;51.824;-0.196;2023-02-18T15:51:05;100946.92;;;11.87;71.48
68145;BME280;55400;51.824;-0.196;2023-02-18T15:55:06;100946.92;;;11.84;71.66
68145;BME280;55400;51.824;-0.196;2023-02-18T15:59:08;100944.87000000001;;;11.76;71.45
68145;BME280;55400;51.824;-0.196;2023-02-18T16:03:08;100944.87000000001;;;11.74;71.45
68145;BME280;55400;51.824;-0.196;2023-02-18T16:07:17;100959.93999999999;;;11.70;71.77
68145;BME280;55400;51.824;-0.196;2023-02-18T16:11:05;100953.57;;;11.69;71.95
68145;BME280;55400;51.824;-0.196;2023-02-18T16:15:05;100954.33;;;11.65;72.44
68145;BME280;55400;51.824;-0.196;2023-02-18T16:19:04;100954.33;;;11.56;72.44
68145;BME280;55400;51.824;-0.196;2023-02-18T16:23:09;100962.28;;;11.51;72.42
68145;BME280;55400;51.824;-0.196;2023-02-18T16:27:05;100975.18;;;11.48;72.65
68145;BME280;55400;51.824;-0.196;2023-02-18T16:31:05;100975.41;;;11.45;72.79
68145;BME280;55400;51.824;-0.196;2023-02-18T16:35:05;100978.33;;;11.46;72.73
68145;BME280;55400;51.824;-0.196;2023-02-18T16:39:04;100966.52;;;11.43;72.99
68145;BME280;55400;51.824;-0.196;2023-02-18T16:43:08;100947.92;;;11.39;72.80
68145;BME280;55400;51.824;-0.196;2023-02-18T16:47:05;100961.47;;;11.32;72.34
68145;BME280;55400;51.824;-0.196;2023-02-18T16:51:05;100961.47;;;11.31;72.34
68145;BME280;55400;51.824;-0.196;2023-02-18T16:55:07;100975.25;;;11.40;72.44
68145;BME280;55400;51.824;-0.196;2023-02-18T16:59:05;100973.58;;;11.49;72.44
68145;BME280;55400;51.824;-0.196;2023-02-18T17:03:05;100981.03;;;11.56;71.85
68145;BME280;55400;51.824;-0.196;2023-02-18T17:07:05;100984.93999999999;;;11.63;71.09
68145;BME280;55400;51.824;-0.196;2023-02-18T17:11:05;100984.93999999999;;;11.66;71.09
68145;BME280;55400;51.824;-0.196;2023-02-18T17:15:08;100983.52;;;11.70;71.26
68145;BME280;55400;51.824;-0.196;2023-02-18T17:19:05;100983.52;;;11.73;70.81
68145;BME280;55400;51.824;-0.196;2023-02-18T17:39:05;100996.78;;;11.69;70.85
68145;BME280;55400;51.824;-0.196;2023-02-18T17:43:05;100994.94;;;11.65;70.63
68145;BME280;55400;51.824;-0.196;2023-02-18T17:47:05;100989.65;;;11.62;70.36
68145;BME280;55400;51.824;-0.196;2023-02-18T17:51:05;100988.39;;;11.58;70.23
68145;BME280;55400;51.824;-0.196;2023-02-18T17:55:10;100988.39;;;11.51;70.23
68145;BME280;55400;51.824;-0.196;2023-02-18T17:59:05;101000.37999999999;;;11.49;70.78
68145;BME280;55400;51.824;-0.196;2023-02-18T18:03:05;100998.32;;;11.44;70.52
68145;BME280;55400;51.824;-0.196;2023-02-18T18:07:05;100999.15999999999;;;11.40;70.52
68145;BME280;55400;51.824;-0.196;2023-02-18T18:11:05;100999.15999999999;;;11.36;70.56
68145;BME280;55400;51.824;-0.196;2023-02-18T18:15:11;101000.14;;;11.34;70.77
68145;BME280;55400;51.824;-0.196;2023-02-18T18:19:05;100991.31;;;11.31;70.46
68145;BME280;55400;51.824;-0.196;2023-02-18T18:23:05;100988.14;;;11.28;70.80
68145;BME280;55400;51.824;-0.196;2023-02-18T18:27:05;100988.14;;;11.22;70.80
68145;BME280;55400;51.824;-0.196;2023-02-18T18:31:05;100972.69;;;11.16;70.87
68145;BME280;55400;51.824;-0.196;2023-02-18T18:35:09;100972.69;;;11.08;70.99
68145;BME280;55400;51.824;-0.196;2023-02-18T18:39:05;100980.26999999999;;;11.02;71.56
68145;BME280;55400;51.824;-0.196;2023-02-18T18:43:05;100980.26999999999;;;10.96;71.67
68145;BME280;55400;51.824;-0.196;2023-02-18T18:47:05;100976.5;;;10.92;71.88
68145;BME280;55400;51.824;-0.196;2023-02-18T18:51:05;100992.92;;;10.86;72.05
68145;BME280;55400;51.824;-0.196;2023-02-18T18:55:09;101001.29;;;10.82;72.17
68145;BME280;55400;51.824;-0.196;2023-02-18T18:59:05;101012.45;;;10.76;72.33
68145;BME280;55400;51.824;-0.196;2023-02-18T19:03:05;101039.4;;;10.72;72.60
68145;BME280;55400;51.824;-0.196;2023-02-18T19:11:05;101048.83;;;10.74;72.63
68145;BME280;55400;51.824;-0.196;2023-02-18T19:15:05;101051.64;;;10.75;72.63
68145;BME280;55400;51.824;-0.196;2023-02-18T19:19:05;101051.64;;;10.76;72.43
68145;BME280;55400;51.824;-0.196;2023-02-18T19:23:05;101059.74;;;10.73;72.07
68145;BME280;55400;51.824;-0.196;2023-02-18T19:27:05;101043.09;;;10.72;72.32
68145;BME280;55400;51.824;-0.196;2023-02-18T19:31:06;101041.72;;;10.66;72.32
68145;BME280;55400;51.824;-0.196;2023-02-18T19:35:05;101041.72;;;10.61;71.95
68145;BME280;55400;51.824;-0.196;2023-02-18T19:39:05;101047.85;;;10.56;72.19
68145;BME280;55400;51.824;-0.196;2023-02-18T19:43:05;101050.59;;;10.53;72.40
68145;BME280;55400;51.824;-0.196;2023-02-18T19:47:05;101062.42;;;10.52;72.55
68145;BME280;55400;51.824;-0.196;2023-02-18T19:51:05;101054.66;;;10.48;72.76
68145;BME280;55400;51.824;-0.196;2023-02-18T19:55:06;101052.48;;;10.47;72.80
68145;BME280;55400;51.824;-0.196;2023-02-18T19:59:05;101045.92;;;10.43;72.80
68145;BME280;55400;51.824;-0.196;2023-02-18T20:03:05;101045.92;;;10.42;73.05
68145;BME280;55400;51.824;-0.196;2023-02-18T20:07:05;101055.06;;;10.40;73.18
68145;BME280;55400;51.824;-0.196;2023-02-18T20:11:05;101066.38;;;10.36;73.18
68145;BME280;55400;51.824;-0.196;2023-02-18T20:15:05;101065.75;;;10.32;73.42
68145;BME280;55400;51.824;-0.196;2023-02-18T20:23:05;101075.18;;;10.34;73.65
68145;BME280;55400;51.824;-0.196;2023-02-18T20:27:05;101075.18;;;10.32;73.65
68145;BME280;55400;51.824;-0.196;2023-02-18T20:31:05;101069.11;;;10.31;73.46
68145;BME280;55400;51.824;-0.196;2023-02-18T20:35:06;101090.91;;;10.33;73.47
68145;BME280;55400;51.824;-0.196;2023-02-18T20:39:05;101090.91;;;10.34;73.53
68145;BME280;55400;51.824;-0.196;2023-02-18T20:43:05;101067.53;;;10.33;73.16
68145;BME280;55400;51.824;-0.196;2023-02-18T20:47:05;101077.67;;;10.34;73.29
68145;BME280;55400;51.824;-0.196;2023-02-18T20:51:06;101091.35;;;10.35;73.17
68145;BME280;55400;51.824;-0.196;2023-02-18T20:55:05;101093.33;;;10.36;73.17
68145;BME280;55400;51.824;-0.196;2023-02-18T20:59:05;101094.01000000001;;;10.33;73.19
68145;BME280;55400;51.824;-0.196;2023-02-18T21:03:05;101091.66;;;10.32;73.31
68145;BME280;55400;51.824;-0.196;2023-02-18T21:11:06;101091.04999999999;;;10.28;73.32
68145;BME280;55400;51.824;-0.196;2023-02-18T21:15:06;101091.99;;;10.26;73.32
68145;BME280;55400;51.824;-0.196;2023-02-18T21:19:06;101091.99;;;10.23;73.32
68145;BME280;55400;51.824;-0.196;2023-02-18T21:23:05;101095.84999999999;;;10.25;73.56
68145;BME280;55400;51.824;-0.196;2023-02-18T21:27:05;101095.84999999999;;;10.28;73.55
68145;BME280;55400;51.824;-0.196;2023-02-18T21:31:13;101101.67;;;10.29;73.51
68145;BME280;55400;51.824;-0.196;2023-02-18T21:39:06;101100.12000000001;;;10.27;73.36
68145;BME280;55400;51.824;-0.196;2023-02-18T21:43:05;101098.49;;;10.23;73.38
68145;BME280;55400;51.824;-0.196;2023-02-18T21:47:05;101107.37000000001;;;10.25;73.52
68145;BME280;55400;51.824;-0.196;2023-02-18T21:51:05;101114.73;;;10.23;73.54
68145;BME280;55400;51.824;-0.196;2023-02-18T22:03:05;101100.34000000001;;;10.21;73.35
68145;BME280;55400;51.824;-0.196;2023-02-18T22:07:05;101111.41;;;10.20;73.49
68145;BME280;55400;51.824;-0.196;2023-02-18T22:11:05;101092.97;;;10.15;73.41
68145;BME280;55400;51.824;-0.196;2023-02-18T22:15:06;101092.97;;;10.12;73.41
68145;BME280;55400;51.824;-0.196;2023-02-18T22:19:06;101091.58;;;10.04;73.45
68145;BME280;55400;51.824;-0.196;2023-02-18T22:23:05;101080.69;;;10.01;73.57
68145;BME280;55400;51.824;-0.196;2023-02-18T22:27:05;101093.36;;;10.00;73.68
68145;BME280;55400;51.824;-0.196;2023-02-18T22:31:06;101093.36;;;9.96;73.72
68145;BME280;55400;51.824;-0.196;2023-02-18T22:35:06;101107.44;;;9.95;73.69
68145;BME280;55400;51.824;-0.196;2023-02-18T22:39:06;101112.43;;;9.93;73.78
68145;BME280;55400;51.824;-0.196;2023-02-18T22:43:05;101112.43;;;9.89;73.82
68145;BME280;55400;51.824;-0.196;2023-02-18T22:47:05;101112.81;;;9.84;73.77
68145;BME280;55400;51.824;-0.196;2023-02-18T22:51:06;101126.04;;;9.78;73.83
68145;BME280;55400;51.824;-0.196;2023-02-18T22:55:06;101129.14;;;9.75;73.88
68145;BME280;55400;51.824;-0.196;2023-02-18T22:59:06;101129.14;;;9.72;73.88
68145;BME280;55400;51.824;-0.196;2023-02-18T23:03:06;101135.74;;;9.69;73.82
68145;BME280;55400;51.824;-0.196;2023-02-18T23:07:06;101133.98999999999;;;9.64;73.91
68145;BME280;55400;51.824;-0.196;2023-02-18T23:11:06;101133.98999999999;;;9.59;73.87
68145;BME280;55400;51.824;-0.196;2023-02-18T23:15:06;101132.25;;;9.54;73.93
68145;BME280;55400;51.824;-0.196;2023-02-18T23:19:06;101138.23999999999;;;9.50;74.00
68145;BME280;55400;51.824;-0.196;2023-02-18T23:23:06;101134.26;;;9.48;73.94
68145;BME280;55400;51.824;-0.196;2023-02-18T23:27:06;101134.26;;;9.43;73.78
68145;BME280;55400;51.824;-0.196;2023-02-18T23:31:06;101142.97;;;9.35;73.95
68145;BME280;55400;51.824;-0.196;2023-02-18T23:39:07;101158.89;;;9.36;74.19
68145;BME280;55400;51.824;-0.196;2023-02-18T23:47:06;101159.11;;;9.35;73.89
68145;BME280;55400;51.824;-0.196;2023-02-18T23:51:06;101173.05;;;9.37;73.89
68145;BME280;55400;51.824;-0.196;2023-02-18T23:59:06;101168.28;;;9.39;73.85
